sensor_id;sensor_type;location;lat;lon;timestamp;P1;durP1;ratioP1;P2;durP2;ratioP2
16385;SDS011;8302;51.154;4.456;2022-09-28T00:02:06;2.13;;;1.38;;
16385;SDS011;8302;51.154;4.456;2022-09-28T00:04:33;1.05;;;1.00;;
16385;SDS011;8302;51.154;4.456;2022-09-28T00:07:01;1.30;;;1.17;;
16385;SDS011;8302;51.154;4.456;2022-09-28T00:09:29;2.10;;;1.33;;
16385;SDS011;8302;51.154;4.456;2022-09-28T00:11:57;1.67;;;1.20;;
16385;SDS011;8302;51.154;4.456;2022-09-28T00:14:24;1.27;;;0.95;;
16385;SDS011;8302;51.154;4.456;2022-09-28T00:16:54;2.17;;;1.10;;
16385;SDS011;8302;51.154;4.456;2022-09-28T00:19:21;3.38;;;1.25;;
16385;SDS011;8302;51.154;4.456;2022-09-28T00:21:49;1.15;;;0.90;;
16385;SDS011;8302;51.154;4.456;2022-09-28T00:24:17;1.08;;;0.63;;
16385;SDS011;8302;51.154;4.456;2022-09-28T00:26:52;1.00;;;0.77;;
16385;SDS011;8302;51.154;4.456;2022-09-28T00:29:21;1.35;;;0.93;;
16385;SDS011;8302;51.154;4.456;2022-09-28T00:31:50;3.08;;;1.00;;
16385;SDS011;8302;51.154;4.456;2022-09-28T00:34:20;4.28;;;1.20;;
16385;SDS011;8302;51.154;4.456;2022-09-28T00:36:47;1.55;;;1.10;;
16385;SDS011;8302;51.154;4.456;2022-09-28T00:39:15;1.70;;;1.13;;
16385;SDS011;8302;51.154;4.456;2022-09-28T00:41:44;1.27;;;1.00;;
16385;SDS011;8302;51.154;4.456;2022-09-28T00:44:36;3.55;;;1.13;;
16385;SDS011;8302;51.154;4.456;2022-09-28T00:47:15;1.45;;;0.75;;
16385;SDS011;8302;51.154;4.456;2022-09-28T00:49:46;2.35;;;1.00;;
16385;SDS011;8302;51.154;4.456;2022-09-28T00:52:15;3.05;;;1.50;;
16385;SDS011;8302;51.154;4.456;2022-09-28T00:54:45;1.48;;;1.25;;
16385;SDS011;8302;51.154;4.456;2022-09-28T00:57:13;3.55;;;1.20;;
16385;SDS011;8302;51.154;4.456;2022-09-28T00:59:42;5.18;;;1.50;;
16385;SDS011;8302;51.154;4.456;2022-09-28T01:02:10;3.58;;;1.60;;
16385;SDS011;8302;51.154;4.456;2022-09-28T01:04:38;3.42;;;1.35;;
16385;SDS011;8302;51.154;4.456;2022-09-28T01:07:07;2.58;;;1.73;;
16385;SDS011;8302;51.154;4.456;2022-09-28T01:09:36;3.20;;;1.60;;
16385;SDS011;8302;51.154;4.456;2022-09-28T01:12:06;3.85;;;1.77;;
16385;SDS011;8302;51.154;4.456;2022-09-28T01:14:33;2.75;;;1.60;;
16385;SDS011;8302;51.154;4.456;2022-09-28T01:17:04;1.98;;;1.70;;
16385;SDS011;8302;51.154;4.456;2022-09-28T01:19:57;3.33;;;1.83;;
16385;SDS011;8302;51.154;4.456;2022-09-28T01:22:29;2.28;;;1.60;;
16385;SDS011;8302;51.154;4.456;2022-09-28T01:25:06;1.85;;;1.40;;
16385;SDS011;8302;51.154;4.456;2022-09-28T01:27:38;2.67;;;1.45;;
16385;SDS011;8302;51.154;4.456;2022-09-28T01:30:08;3.22;;;1.52;;
16385;SDS011;8302;51.154;4.456;2022-09-28T01:32:38;3.67;;;1.50;;
16385;SDS011;8302;51.154;4.456;2022-09-28T01:35:09;1.33;;;1.23;;
16385;SDS011;8302;51.154;4.456;2022-09-28T01:37:43;3.85;;;1.60;;
16385;SDS011;8302;51.154;4.456;2022-09-28T01:40:12;3.53;;;1.77;;
16385;SDS011;8302;51.154;4.456;2022-09-28T01:42:42;2.83;;;1.67;;
16385;SDS011;8302;51.154;4.456;2022-09-28T01:45:13;3.05;;;1.92;;
16385;SDS011;8302;51.154;4.456;2022-09-28T01:47:41;2.45;;;1.85;;
16385;SDS011;8302;51.154;4.456;2022-09-28T01:50:10;3.50;;;1.70;;
16385;SDS011;8302;51.154;4.456;2022-09-28T01:52:41;3.25;;;1.90;;
16385;SDS011;8302;51.154;4.456;2022-09-28T01:55:11;3.03;;;1.80;;
16385;SDS011;8302;51.154;4.456;2022-09-28T01:57:43;3.90;;;2.40;;
16385;SDS011;8302;51.154;4.456;2022-09-28T02:00:12;2.13;;;1.80;;
16385;SDS011;8302;51.154;4.456;2022-09-28T02:02:43;2.85;;;1.67;;
16385;SDS011;8302;51.154;4.456;2022-09-28T02:05:17;5.25;;;2.42;;
16385;SDS011;8302;51.154;4.456;2022-09-28T02:07:47;2.95;;;2.00;;
16385;SDS011;8302;51.154;4.456;2022-09-28T02:10:20;2.70;;;2.30;;
16385;SDS011;8302;51.154;4.456;2022-09-28T02:12:50;3.42;;;2.00;;
16385;SDS011;8302;51.154;4.456;2022-09-28T02:15:22;2.75;;;2.00;;
16385;SDS011;8302;51.154;4.456;2022-09-28T02:17:51;5.32;;;3.05;;
16385;SDS011;8302;51.154;4.456;2022-09-28T02:20:19;3.65;;;2.30;;
16385;SDS011;8302;51.154;4.456;2022-09-28T02:22:48;4.22;;;2.50;;
16385;SDS011;8302;51.154;4.456;2022-09-28T02:25:19;3.03;;;2.20;;
16385;SDS011;8302;51.154;4.456;2022-09-28T02:27:51;2.80;;;2.00;;
16385;SDS011;8302;51.154;4.456;2022-09-28T02:30:20;2.95;;;2.00;;
16385;SDS011;8302;51.154;4.456;2022-09-28T02:32:49;2.72;;;1.70;;
16385;SDS011;8302;51.154;4.456;2022-09-28T02:35:19;3.85;;;2.17;;
16385;SDS011;8302;51.154;4.456;2022-09-28T02:37:47;3.13;;;2.20;;
16385;SDS011;8302;51.154;4.456;2022-09-28T02:40:16;4.75;;;3.13;;
16385;SDS011;8302;51.154;4.456;2022-09-28T02:42:54;2.05;;;1.85;;
16385;SDS011;8302;51.154;4.456;2022-09-28T02:45:28;2.15;;;1.95;;
16385;SDS011;8302;51.154;4.456;2022-09-28T02:48:02;1.70;;;1.08;;
16385;SDS011;8302;51.154;4.456;2022-09-28T02:50:36;1.65;;;1.30;;
16385;SDS011;8302;51.154;4.456;2022-09-28T02:53:08;2.20;;;1.63;;
16385;SDS011;8302;51.154;4.456;2022-09-28T02:55:48;4.65;;;2.45;;
16385;SDS011;8302;51.154;4.456;2022-09-28T02:58:23;2.60;;;1.70;;
16385;SDS011;8302;51.154;4.456;2022-09-28T03:00:55;2.42;;;1.50;;
16385;SDS011;8302;51.154;4.456;2022-09-28T03:03:27;2.85;;;1.40;;
16385;SDS011;8302;51.154;4.456;2022-09-28T03:05:58;7.00;;;2.03;;
16385;SDS011;8302;51.154;4.456;2022-09-28T03:08:36;3.67;;;1.42;;
16385;SDS011;8302;51.154;4.456;2022-09-28T03:11:09;3.90;;;1.40;;
16385;SDS011;8302;51.154;4.456;2022-09-28T03:13:41;1.90;;;1.52;;
16385;SDS011;8302;51.154;4.456;2022-09-28T03:16:10;2.22;;;1.60;;
16385;SDS011;8302;51.154;4.456;2022-09-28T03:18:39;2.53;;;1.70;;
16385;SDS011;8302;51.154;4.456;2022-09-28T03:21:08;2.58;;;1.63;;
16385;SDS011;8302;51.154;4.456;2022-09-28T03:23:37;3.40;;;1.65;;
16385;SDS011;8302;51.154;4.456;2022-09-28T03:26:06;1.70;;;1.60;;
16385;SDS011;8302;51.154;4.456;2022-09-28T03:28:34;3.13;;;1.63;;
16385;SDS011;8302;51.154;4.456;2022-09-28T03:31:05;3.33;;;1.67;;
16385;SDS011;8302;51.154;4.456;2022-09-28T03:33:32;2.00;;;1.42;;
16385;SDS011;8302;51.154;4.456;2022-09-28T03:36:00;2.17;;;1.60;;
16385;SDS011;8302;51.154;4.456;2022-09-28T03:38:29;2.83;;;1.63;;
16385;SDS011;8302;51.154;4.456;2022-09-28T03:40:57;2.63;;;1.83;;
16385;SDS011;8302;51.154;4.456;2022-09-28T03:43:31;3.35;;;1.80;;
16385;SDS011;8302;51.154;4.456;2022-09-28T03:46:01;3.83;;;2.13;;
16385;SDS011;8302;51.154;4.456;2022-09-28T03:48:34;4.97;;;2.05;;
16385;SDS011;8302;51.154;4.456;2022-09-28T03:51:02;3.63;;;1.80;;
16385;SDS011;8302;51.154;4.456;2022-09-28T03:53:31;2.92;;;2.17;;
16385;SDS011;8302;51.154;4.456;2022-09-28T03:56:03;3.20;;;2.35;;
16385;SDS011;8302;51.154;4.456;2022-09-28T03:58:31;3.72;;;2.40;;
16385;SDS011;8302;51.154;4.456;2022-09-28T04:01:00;3.20;;;2.33;;
16385;SDS011;8302;51.154;4.456;2022-09-28T04:03:28;2.60;;;1.85;;
16385;SDS011;8302;51.154;4.456;2022-09-28T04:05:57;6.15;;;2.60;;
16385;SDS011;8302;51.154;4.456;2022-09-28T04:08:25;2.83;;;2.40;;
16385;SDS011;8302;51.154;4.456;2022-09-28T04:10:54;3.70;;;2.25;;
16385;SDS011;8302;51.154;4.456;2022-09-28T04:13:22;3.67;;;2.38;;
16385;SDS011;8302;51.154;4.456;2022-09-28T04:15:53;3.40;;;2.38;;
16385;SDS011;8302;51.154;4.456;2022-09-28T04:18:21;6.85;;;3.20;;
16385;SDS011;8302;51.154;4.456;2022-09-28T04:21:15;3.55;;;2.22;;
16385;SDS011;8302;51.154;4.456;2022-09-28T04:23:46;3.17;;;2.05;;
16385;SDS011;8302;51.154;4.456;2022-09-28T04:26:14;5.53;;;2.60;;
16385;SDS011;8302;51.154;4.456;2022-09-28T04:28:43;4.60;;;2.28;;
16385;SDS011;8302;51.154;4.456;2022-09-28T04:31:35;3.22;;;2.20;;
16385;SDS011;8302;51.154;4.456;2022-09-28T04:34:04;3.95;;;2.50;;
16385;SDS011;8302;51.154;4.456;2022-09-28T04:36:33;4.82;;;2.42;;
16385;SDS011;8302;51.154;4.456;2022-09-28T04:39:00;7.28;;;2.40;;
16385;SDS011;8302;51.154;4.456;2022-09-28T04:41:30;4.07;;;1.98;;
16385;SDS011;8302;51.154;4.456;2022-09-28T04:43:57;4.07;;;2.40;;
16385;SDS011;8302;51.154;4.456;2022-09-28T04:46:25;3.50;;;2.25;;
16385;SDS011;8302;51.154;4.456;2022-09-28T04:49:16;3.05;;;1.83;;
16385;SDS011;8302;51.154;4.456;2022-09-28T04:51:52;3.30;;;1.77;;
16385;SDS011;8302;51.154;4.456;2022-09-28T04:54:19;2.97;;;2.17;;
16385;SDS011;8302;51.154;4.456;2022-09-28T04:56:47;3.50;;;1.83;;
16385;SDS011;8302;51.154;4.456;2022-09-28T04:59:14;4.20;;;1.73;;
16385;SDS011;8302;51.154;4.456;2022-09-28T05:01:43;3.03;;;1.90;;
16385;SDS011;8302;51.154;4.456;2022-09-28T05:04:48;5.28;;;2.10;;
16385;SDS011;8302;51.154;4.456;2022-09-28T05:07:34;3.97;;;2.38;;
16385;SDS011;8302;51.154;4.456;2022-09-28T05:10:04;5.25;;;2.15;;
16385;SDS011;8302;51.154;4.456;2022-09-28T05:12:32;3.85;;;1.90;;
16385;SDS011;8302;51.154;4.456;2022-09-28T05:15:01;3.53;;;2.33;;
16385;SDS011;8302;51.154;4.456;2022-09-28T05:17:29;5.10;;;2.22;;
16385;SDS011;8302;51.154;4.456;2022-09-28T05:20:08;5.05;;;1.70;;
16385;SDS011;8302;51.154;4.456;2022-09-28T05:22:37;2.15;;;1.40;;
16385;SDS011;8302;51.154;4.456;2022-09-28T05:25:06;4.75;;;2.10;;
16385;SDS011;8302;51.154;4.456;2022-09-28T05:27:45;6.68;;;1.95;;
16385;SDS011;8302;51.154;4.456;2022-09-28T05:30:35;3.25;;;1.98;;
16385;SDS011;8302;51.154;4.456;2022-09-28T05:33:26;1.88;;;1.70;;
16385;SDS011;8302;51.154;4.456;2022-09-28T05:36:07;2.08;;;1.40;;
16385;SDS011;8302;51.154;4.456;2022-09-28T05:38:37;2.42;;;1.95;;
16385;SDS011;8302;51.154;4.456;2022-09-28T05:41:04;1.85;;;1.50;;
16385;SDS011;8302;51.154;4.456;2022-09-28T05:43:32;3.88;;;1.92;;
16385;SDS011;8302;51.154;4.456;2022-09-28T05:46:02;2.13;;;1.85;;
16385;SDS011;8302;51.154;4.456;2022-09-28T05:48:32;5.32;;;2.10;;
16385;SDS011;8302;51.154;4.456;2022-09-28T05:50:59;12.55;;;2.58;;
16385;SDS011;8302;51.154;4.456;2022-09-28T05:53:27;3.22;;;1.00;;
16385;SDS011;8302;51.154;4.456;2022-09-28T05:55:58;5.47;;;1.90;;
16385;SDS011;8302;51.154;4.456;2022-09-28T05:58:28;5.07;;;2.53;;
16385;SDS011;8302;51.154;4.456;2022-09-28T06:00:57;8.18;;;2.83;;
16385;SDS011;8302;51.154;4.456;2022-09-28T06:03:25;5.53;;;2.22;;
16385;SDS011;8302;51.154;4.456;2022-09-28T06:05:53;3.08;;;1.92;;
16385;SDS011;8302;51.154;4.456;2022-09-28T06:08:22;4.78;;;2.03;;
16385;SDS011;8302;51.154;4.456;2022-09-28T06:11:11;4.95;;;2.22;;
16385;SDS011;8302;51.154;4.456;2022-09-28T06:13:39;3.45;;;2.20;;
16385;SDS011;8302;51.154;4.456;2022-09-28T06:16:07;4.88;;;1.92;;
16385;SDS011;8302;51.154;4.456;2022-09-28T06:18:35;4.20;;;2.40;;
16385;SDS011;8302;51.154;4.456;2022-09-28T06:21:12;3.13;;;1.88;;
16385;SDS011;8302;51.154;4.456;2022-09-28T06:23:43;5.25;;;2.60;;
16385;SDS011;8302;51.154;4.456;2022-09-28T06:26:16;4.13;;;2.33;;
16385;SDS011;8302;51.154;4.456;2022-09-28T06:28:44;5.10;;;2.67;;
16385;SDS011;8302;51.154;4.456;2022-09-28T06:31:12;3.65;;;2.00;;
16385;SDS011;8302;51.154;4.456;2022-09-28T06:33:46;6.05;;;2.08;;
16385;SDS011;8302;51.154;4.456;2022-09-28T06:36:16;4.00;;;2.25;;
16385;SDS011;8302;51.154;4.456;2022-09-28T06:38:44;6.93;;;2.15;;
16385;SDS011;8302;51.154;4.456;2022-09-28T06:41:13;5.97;;;2.33;;
16385;SDS011;8302;51.154;4.456;2022-09-28T06:43:44;2.55;;;2.00;;
16385;SDS011;8302;51.154;4.456;2022-09-28T06:46:11;3.33;;;2.03;;
16385;SDS011;8302;51.154;4.456;2022-09-28T06:48:39;4.60;;;2.22;;
16385;SDS011;8302;51.154;4.456;2022-09-28T06:51:11;4.47;;;1.92;;
16385;SDS011;8302;51.154;4.456;2022-09-28T06:53:52;6.50;;;2.22;;
16385;SDS011;8302;51.154;4.456;2022-09-28T06:57:00;3.70;;;2.55;;
16385;SDS011;8302;51.154;4.456;2022-09-28T06:59:29;2.88;;;2.25;;
16385;SDS011;8302;51.154;4.456;2022-09-28T07:01:58;6.75;;;2.58;;
16385;SDS011;8302;51.154;4.456;2022-09-28T07:04:45;5.25;;;2.25;;
16385;SDS011;8302;51.154;4.456;2022-09-28T07:07:31;4.88;;;2.55;;
16385;SDS011;8302;51.154;4.456;2022-09-28T07:10:05;5.57;;;1.90;;
16385;SDS011;8302;51.154;4.456;2022-09-28T07:12:56;3.10;;;2.00;;
16385;SDS011;8302;51.154;4.456;2022-09-28T07:15:35;4.57;;;1.92;;
16385;SDS011;8302;51.154;4.456;2022-09-28T07:18:04;2.10;;;1.50;;
16385;SDS011;8302;51.154;4.456;2022-09-28T07:20:32;7.80;;;2.50;;
16385;SDS011;8302;51.154;4.456;2022-09-28T07:23:15;4.45;;;2.20;;
16385;SDS011;8302;51.154;4.456;2022-09-28T07:26:04;3.47;;;2.08;;
16385;SDS011;8302;51.154;4.456;2022-09-28T07:28:52;6.18;;;2.67;;
16385;SDS011;8302;51.154;4.456;2022-09-28T07:31:53;5.07;;;2.28;;
16385;SDS011;8302;51.154;4.456;2022-09-28T07:34:39;2.60;;;1.85;;
16385;SDS011;8302;51.154;4.456;2022-09-28T07:37:29;5.05;;;2.38;;
16385;SDS011;8302;51.154;4.456;2022-09-28T07:39:56;3.47;;;2.30;;
16385;SDS011;8302;51.154;4.456;2022-09-28T07:42:42;3.28;;;2.38;;
16385;SDS011;8302;51.154;4.456;2022-09-28T07:45:11;3.55;;;2.30;;
16385;SDS011;8302;51.154;4.456;2022-09-28T07:47:40;15.43;;;2.22;;
16385;SDS011;8302;51.154;4.456;2022-09-28T07:50:31;7.50;;;1.92;;
16385;SDS011;8302;51.154;4.456;2022-09-28T07:53:07;4.32;;;2.05;;
16385;SDS011;8302;51.154;4.456;2022-09-28T07:56:04;6.50;;;2.78;;
16385;SDS011;8302;51.154;4.456;2022-09-28T07:58:39;1.50;;;1.27;;
16385;SDS011;8302;51.154;4.456;2022-09-28T08:01:45;6.28;;;1.88;;
16385;SDS011;8302;51.154;4.456;2022-09-28T08:04:17;4.07;;;1.70;;
16385;SDS011;8302;51.154;4.456;2022-09-28T08:06:45;3.83;;;1.88;;
16385;SDS011;8302;51.154;4.456;2022-09-28T08:09:13;4.22;;;1.90;;
16385;SDS011;8302;51.154;4.456;2022-09-28T08:12:04;9.38;;;2.38;;
16385;SDS011;8302;51.154;4.456;2022-09-28T08:14:47;0.93;;;0.80;;
16385;SDS011;8302;51.154;4.456;2022-09-28T08:17:46;3.70;;;1.73;;
16385;SDS011;8302;51.154;4.456;2022-09-28T08:20:17;3.50;;;1.70;;
16385;SDS011;8302;51.154;4.456;2022-09-28T08:23:02;8.57;;;1.95;;
16385;SDS011;8302;51.154;4.456;2022-09-28T08:25:31;3.17;;;1.27;;
16385;SDS011;8302;51.154;4.456;2022-09-28T08:28:00;4.40;;;1.80;;
16385;SDS011;8302;51.154;4.456;2022-09-28T08:30:30;2.45;;;1.77;;
16385;SDS011;8302;51.154;4.456;2022-09-28T08:33:24;2.63;;;1.67;;
16385;SDS011;8302;51.154;4.456;2022-09-28T08:36:25;6.32;;;2.80;;
16385;SDS011;8302;51.154;4.456;2022-09-28T08:39:28;3.03;;;1.42;;
16385;SDS011;8302;51.154;4.456;2022-09-28T08:42:29;4.30;;;2.20;;
16385;SDS011;8302;51.154;4.456;2022-09-28T08:45:21;2.83;;;1.52;;
16385;SDS011;8302;51.154;4.456;2022-09-28T08:48:25;1.27;;;1.13;;
16385;SDS011;8302;51.154;4.456;2022-09-28T08:51:50;3.13;;;1.67;;
16385;SDS011;8302;51.154;4.456;2022-09-28T08:54:30;9.40;;;1.75;;
16385;SDS011;8302;51.154;4.456;2022-09-28T08:57:02;2.60;;;0.90;;
16385;SDS011;8302;51.154;4.456;2022-09-28T08:59:30;5.43;;;2.03;;
16385;SDS011;8302;51.154;4.456;2022-09-28T09:02:08;2.78;;;1.52;;
16385;SDS011;8302;51.154;4.456;2022-09-28T09:04:38;2.10;;;1.10;;
16385;SDS011;8302;51.154;4.456;2022-09-28T09:07:24;2.53;;;0.98;;
16385;SDS011;8302;51.154;4.456;2022-09-28T09:10:12;1.70;;;0.57;;
16385;SDS011;8302;51.154;4.456;2022-09-28T09:12:47;0.50;;;0.50;;
16385;SDS011;8302;51.154;4.456;2022-09-28T09:15:26;2.17;;;0.95;;
16385;SDS011;8302;51.154;4.456;2022-09-28T09:18:07;2.83;;;1.40;;
16385;SDS011;8302;51.154;4.456;2022-09-28T09:20:52;2.30;;;0.70;;
16385;SDS011;8302;51.154;4.456;2022-09-28T09:23:35;0.95;;;0.40;;
16385;SDS011;8302;51.154;4.456;2022-09-28T09:26:09;1.13;;;0.40;;
16385;SDS011;8302;51.154;4.456;2022-09-28T09:28:45;0.95;;;0.50;;
16385;SDS011;8302;51.154;4.456;2022-09-28T09:31:24;6.93;;;1.17;;
16385;SDS011;8302;51.154;4.456;2022-09-28T09:36:57;1.83;;;0.93;;
16385;SDS011;8302;51.154;4.456;2022-09-28T09:40:03;0.35;;;0.35;;
16385;SDS011;8302;51.154;4.456;2022-09-28T09:42:55;0.43;;;0.43;;
16385;SDS011;8302;51.154;4.456;2022-09-28T09:45:42;3.38;;;1.20;;
16385;SDS011;8302;51.154;4.456;2022-09-28T09:48:33;2.15;;;1.33;;
16385;SDS011;8302;51.154;4.456;2022-09-28T09:51:03;1.33;;;0.90;;
16385;SDS011;8302;51.154;4.456;2022-09-28T09:53:35;5.65;;;1.17;;
16385;SDS011;8302;51.154;4.456;2022-09-28T09:56:11;3.53;;;0.90;;
16385;SDS011;8302;51.154;4.456;2022-09-28T09:58:58;3.38;;;1.02;;
16385;SDS011;8302;51.154;4.456;2022-09-28T10:01:37;1.27;;;1.17;;
16385;SDS011;8302;51.154;4.456;2022-09-28T10:04:34;2.78;;;1.17;;
16385;SDS011;8302;51.154;4.456;2022-09-28T10:07:12;1.48;;;1.20;;
16385;SDS011;8302;51.154;4.456;2022-09-28T10:09:42;1.25;;;0.90;;
16385;SDS011;8302;51.154;4.456;2022-09-28T10:12:27;2.97;;;1.30;;
16385;SDS011;8302;51.154;4.456;2022-09-28T10:14:57;3.95;;;1.08;;
16385;SDS011;8302;51.154;4.456;2022-09-28T10:17:26;3.00;;;1.48;;
16385;SDS011;8302;51.154;4.456;2022-09-28T10:20:25;3.90;;;1.10;;
16385;SDS011;8302;51.154;4.456;2022-09-28T10:22:59;4.18;;;0.75;;
16385;SDS011;8302;51.154;4.456;2022-09-28T10:25:28;2.47;;;1.20;;
16385;SDS011;8302;51.154;4.456;2022-09-28T10:27:58;1.45;;;0.80;;
16385;SDS011;8302;51.154;4.456;2022-09-28T10:30:28;6.90;;;1.25;;
16385;SDS011;8302;51.154;4.456;2022-09-28T10:32:57;3.33;;;1.10;;
16385;SDS011;8302;51.154;4.456;2022-09-28T10:35:38;1.48;;;1.00;;
16385;SDS011;8302;51.154;4.456;2022-09-28T10:38:12;2.13;;;1.25;;
16385;SDS011;8302;51.154;4.456;2022-09-28T10:40:41;1.73;;;0.90;;
16385;SDS011;8302;51.154;4.456;2022-09-28T10:43:19;2.85;;;0.93;;
16385;SDS011;8302;51.154;4.456;2022-09-28T10:45:57;3.78;;;1.33;;
16385;SDS011;8302;51.154;4.456;2022-09-28T10:48:26;3.15;;;1.73;;
16385;SDS011;8302;51.154;4.456;2022-09-28T10:50:58;4.60;;;1.50;;
16385;SDS011;8302;51.154;4.456;2022-09-28T10:53:26;2.65;;;1.05;;
16385;SDS011;8302;51.154;4.456;2022-09-28T10:56:34;6.00;;;2.10;;
16385;SDS011;8302;51.154;4.456;2022-09-28T10:59:13;2.67;;;1.45;;
16385;SDS011;8302;51.154;4.456;2022-09-28T11:01:51;1.95;;;1.13;;
16385;SDS011;8302;51.154;4.456;2022-09-28T11:04:21;4.60;;;1.60;;
16385;SDS011;8302;51.154;4.456;2022-09-28T11:06:49;6.00;;;2.03;;
16385;SDS011;8302;51.154;4.456;2022-09-28T11:09:21;2.95;;;2.03;;
16385;SDS011;8302;51.154;4.456;2022-09-28T11:11:58;3.03;;;1.40;;
16385;SDS011;8302;51.154;4.456;2022-09-28T11:14:31;2.67;;;1.15;;
16385;SDS011;8302;51.154;4.456;2022-09-28T11:17:17;1.65;;;1.10;;
16385;SDS011;8302;51.154;4.456;2022-09-28T11:19:46;3.85;;;1.85;;
16385;SDS011;8302;51.154;4.456;2022-09-28T11:22:24;3.92;;;2.30;;
16385;SDS011;8302;51.154;4.456;2022-09-28T11:25:11;3.83;;;1.83;;
16385;SDS011;8302;51.154;4.456;2022-09-28T11:27:39;4.13;;;1.73;;
16385;SDS011;8302;51.154;4.456;2022-09-28T11:30:20;3.88;;;1.95;;
16385;SDS011;8302;51.154;4.456;2022-09-28T11:33:21;3.22;;;1.77;;
16385;SDS011;8302;51.154;4.456;2022-09-28T11:36:18;4.55;;;1.83;;
16385;SDS011;8302;51.154;4.456;2022-09-28T11:38:52;2.17;;;1.23;;
16385;SDS011;8302;51.154;4.456;2022-09-28T11:41:40;2.92;;;1.50;;
16385;SDS011;8302;51.154;4.456;2022-09-28T11:49:55;7.00;;;2.05;;
16385;SDS011;8302;51.154;4.456;2022-09-28T11:52:26;7.25;;;3.03;;
16385;SDS011;8302;51.154;4.456;2022-09-28T11:54:56;6.35;;;3.42;;
16385;SDS011;8302;51.154;4.456;2022-09-28T11:57:26;6.15;;;2.90;;
16385;SDS011;8302;51.154;4.456;2022-09-28T11:59:56;2.55;;;1.50;;
16385;SDS011;8302;51.154;4.456;2022-09-28T12:02:25;3.42;;;1.77;;
16385;SDS011;8302;51.154;4.456;2022-09-28T12:05:07;0.50;;;0.50;;
16385;SDS011;8302;51.154;4.456;2022-09-28T12:07:45;1.00;;;0.80;;
16385;SDS011;8302;51.154;4.456;2022-09-28T12:10:34;3.08;;;1.27;;
16385;SDS011;8302;51.154;4.456;2022-09-28T12:13:11;4.80;;;1.52;;
16385;SDS011;8302;51.154;4.456;2022-09-28T12:15:42;2.40;;;0.82;;
16385;SDS011;8302;51.154;4.456;2022-09-28T12:18:33;1.55;;;1.10;;
16385;SDS011;8302;51.154;4.456;2022-09-28T12:21:08;3.35;;;1.30;;
16385;SDS011;8302;51.154;4.456;2022-09-28T12:23:38;1.90;;;1.10;;
16385;SDS011;8302;51.154;4.456;2022-09-28T12:26:10;1.85;;;0.85;;
16385;SDS011;8302;51.154;4.456;2022-09-28T12:28:44;1.58;;;1.15;;
16385;SDS011;8302;51.154;4.456;2022-09-28T12:31:15;3.45;;;1.02;;
16385;SDS011;8302;51.154;4.456;2022-09-28T12:33:44;2.15;;;1.00;;
16385;SDS011;8302;51.154;4.456;2022-09-28T12:36:16;2.10;;;1.33;;
16385;SDS011;8302;51.154;4.456;2022-09-28T12:38:50;2.00;;;1.15;;
16385;SDS011;8302;51.154;4.456;2022-09-28T12:41:43;1.60;;;1.10;;
16385;SDS011;8302;51.154;4.456;2022-09-28T12:44:19;3.38;;;1.20;;
16385;SDS011;8302;51.154;4.456;2022-09-28T12:46:56;2.83;;;1.30;;
16385;SDS011;8302;51.154;4.456;2022-09-28T12:49:40;3.47;;;1.45;;
16385;SDS011;8302;51.154;4.456;2022-09-28T12:52:35;5.28;;;1.35;;
16385;SDS011;8302;51.154;4.456;2022-09-28T12:55:10;1.77;;;1.20;;
16385;SDS011;8302;51.154;4.456;2022-09-28T12:57:46;0.82;;;0.80;;
16385;SDS011;8302;51.154;4.456;2022-09-28T13:00:15;1.75;;;0.73;;
16385;SDS011;8302;51.154;4.456;2022-09-28T13:02:48;0.80;;;0.80;;
16385;SDS011;8302;51.154;4.456;2022-09-28T13:05:22;0.50;;;0.50;;
16385;SDS011;8302;51.154;4.456;2022-09-28T13:07:58;0.80;;;0.60;;
16385;SDS011;8302;51.154;4.456;2022-09-28T13:10:30;1.33;;;0.73;;
16385;SDS011;8302;51.154;4.456;2022-09-28T13:13:07;2.13;;;0.60;;
16385;SDS011;8302;51.154;4.456;2022-09-28T13:15:40;2.20;;;0.63;;
16385;SDS011;8302;51.154;4.456;2022-09-28T13:18:11;1.13;;;0.60;;
16385;SDS011;8302;51.154;4.456;2022-09-28T13:20:43;0.73;;;0.43;;
16385;SDS011;8302;51.154;4.456;2022-09-28T13:23:17;3.25;;;0.73;;
16385;SDS011;8302;51.154;4.456;2022-09-28T13:25:48;1.13;;;0.80;;
16385;SDS011;8302;51.154;4.456;2022-09-28T13:28:17;0.93;;;0.60;;
16385;SDS011;8302;51.154;4.456;2022-09-28T13:30:48;1.42;;;0.70;;
16385;SDS011;8302;51.154;4.456;2022-09-28T13:33:19;3.15;;;0.68;;
16385;SDS011;8302;51.154;4.456;2022-09-28T13:35:49;0.65;;;0.60;;
16385;SDS011;8302;51.154;4.456;2022-09-28T13:38:37;0.80;;;0.65;;
16385;SDS011;8302;51.154;4.456;2022-09-28T13:41:25;0.40;;;0.40;;
16385;SDS011;8302;51.154;4.456;2022-09-28T13:44:09;0.80;;;0.60;;
16385;SDS011;8302;51.154;4.456;2022-09-28T13:46:44;0.43;;;0.40;;
16385;SDS011;8302;51.154;4.456;2022-09-28T13:49:15;0.50;;;0.50;;
16385;SDS011;8302;51.154;4.456;2022-09-28T13:51:47;0.43;;;0.43;;
16385;SDS011;8302;51.154;4.456;2022-09-28T13:54:29;2.00;;;0.70;;
16385;SDS011;8302;51.154;4.456;2022-09-28T13:57:09;0.80;;;0.55;;
16385;SDS011;8302;51.154;4.456;2022-09-28T13:59:42;2.50;;;0.75;;
16385;SDS011;8302;51.154;4.456;2022-09-28T14:02:28;0.90;;;0.60;;
16385;SDS011;8302;51.154;4.456;2022-09-28T14:04:57;1.95;;;0.80;;
16385;SDS011;8302;51.154;4.456;2022-09-28T14:07:53;1.90;;;0.52;;
16385;SDS011;8302;51.154;4.456;2022-09-28T14:10:29;0.95;;;0.60;;
16385;SDS011;8302;51.154;4.456;2022-09-28T14:13:11;1.58;;;0.50;;
16385;SDS011;8302;51.154;4.456;2022-09-28T14:15:45;1.77;;;0.70;;
16385;SDS011;8302;51.154;4.456;2022-09-28T14:18:15;0.80;;;0.52;;
16385;SDS011;8302;51.154;4.456;2022-09-28T14:20:47;0.85;;;0.50;;
16385;SDS011;8302;51.154;4.456;2022-09-28T14:23:20;1.10;;;0.60;;
16385;SDS011;8302;51.154;4.456;2022-09-28T14:26:01;2.65;;;0.70;;
16385;SDS011;8302;51.154;4.456;2022-09-28T14:28:33;1.00;;;0.52;;
16385;SDS011;8302;51.154;4.456;2022-09-28T14:31:05;4.25;;;0.85;;
16385;SDS011;8302;51.154;4.456;2022-09-28T14:33:34;3.25;;;1.15;;
16385;SDS011;8302;51.154;4.456;2022-09-28T14:36:04;2.53;;;0.85;;
16385;SDS011;8302;51.154;4.456;2022-09-28T14:38:33;2.55;;;1.20;;
16385;SDS011;8302;51.154;4.456;2022-09-28T14:41:30;2.00;;;0.70;;
16385;SDS011;8302;51.154;4.456;2022-09-28T14:44:00;3.72;;;1.02;;
16385;SDS011;8302;51.154;4.456;2022-09-28T14:46:33;1.77;;;0.60;;
16385;SDS011;8302;51.154;4.456;2022-09-28T14:49:02;1.20;;;1.00;;
16385;SDS011;8302;51.154;4.456;2022-09-28T14:51:43;2.88;;;0.55;;
16385;SDS011;8302;51.154;4.456;2022-09-28T14:54:14;2.83;;;0.50;;
16385;SDS011;8302;51.154;4.456;2022-09-28T14:56:47;1.73;;;0.47;;
16385;SDS011;8302;51.154;4.456;2022-09-28T14:59:16;1.25;;;0.43;;
16385;SDS011;8302;51.154;4.456;2022-09-28T15:01:44;2.78;;;0.60;;
16385;SDS011;8302;51.154;4.456;2022-09-28T15:04:13;1.77;;;0.60;;
16385;SDS011;8302;51.154;4.456;2022-09-28T15:06:45;1.17;;;0.70;;
16385;SDS011;8302;51.154;4.456;2022-09-28T15:09:26;1.33;;;0.70;;
16385;SDS011;8302;51.154;4.456;2022-09-28T15:11:58;0.98;;;0.55;;
16385;SDS011;8302;51.154;4.456;2022-09-28T15:14:26;1.85;;;0.70;;
16385;SDS011;8302;51.154;4.456;2022-09-28T15:16:57;0.93;;;0.40;;
16385;SDS011;8302;51.154;4.456;2022-09-28T15:19:27;1.67;;;0.57;;
16385;SDS011;8302;51.154;4.456;2022-09-28T15:21:57;0.68;;;0.55;;
16385;SDS011;8302;51.154;4.456;2022-09-28T15:24:26;1.85;;;0.60;;
16385;SDS011;8302;51.154;4.456;2022-09-28T15:26:56;2.22;;;0.60;;
16385;SDS011;8302;51.154;4.456;2022-09-28T15:29:25;1.50;;;0.50;;
16385;SDS011;8302;51.154;4.456;2022-09-28T15:31:56;1.20;;;0.60;;
16385;SDS011;8302;51.154;4.456;2022-09-28T15:34:28;1.38;;;0.77;;
16385;SDS011;8302;51.154;4.456;2022-09-28T15:37:14;0.88;;;0.60;;
16385;SDS011;8302;51.154;4.456;2022-09-28T15:39:43;4.40;;;0.80;;
16385;SDS011;8302;51.154;4.456;2022-09-28T15:42:14;0.82;;;0.63;;
16385;SDS011;8302;51.154;4.456;2022-09-28T15:44:57;1.67;;;0.70;;
16385;SDS011;8302;51.154;4.456;2022-09-28T15:47:26;1.98;;;0.60;;
16385;SDS011;8302;51.154;4.456;2022-09-28T15:49:54;3.42;;;1.10;;
16385;SDS011;8302;51.154;4.456;2022-09-28T15:52:25;1.10;;;0.50;;
16385;SDS011;8302;51.154;4.456;2022-09-28T15:54:53;2.70;;;0.40;;
16385;SDS011;8302;51.154;4.456;2022-09-28T15:57:31;0.90;;;0.60;;